Ferrisburgh, Vermont
Current Conditions -  °F | °C
As of 1:35 PM on Sunday 23 Nov 2014 (Local Time) from K6B0 Reporting Station
Broken Clouds Broken Clouds  
Wind Chill: 48°   Ceiling: 2900
Heat Index: 50°   Visibility: 10mi
Dew Point: 39°   Wind: 5mph
Humidity: 68%   Direction: 170°S
Pressure: 30.07"   Gusts: NA
Location:  44.2091°N, 73.2784°W
Report Text: K6B0 231835Z AUTO 17004KT 10SM BKN029 10/04 A3007 RMK AO2 T00980041
Loading
Personal Weather Stations






























Interactive Weather Map New forecast layout! Learn more

10-Day Weather Forecast

Advertisements
Track Severe Weather on mobile